Time;durP1;ratioP1;P1;durP2;ratioP2;P2;SDS_P1;SDS_P2;PMS_P1;PMS_P2;Temp;Humidity;BMP_temperature;BMP_pressure;BME280_temperature;BME280_humidity;BME280_pressure;Samples;Min_cycle;Max_cycle;Signal;HPM_P1;HPM_P2
2023/03/31 00:00:28;;;;;;;;;;;;;;;12.64;61.71;99239.41;1085473;54;19950;-80
2023/03/31 00:01:33;;;;;;;;;;;;;;;12.67;61.59;99235.53;1087065;39;20436;-79
2023/03/31 00:02:35;;;;;;;;;;;;;;;12.60;61.73;99235.41;1086878;54;20015;-77
2023/03/31 00:03:42;;;;;;;;;;;;;;;12.59;61.78;99228.38;1086707;54;19950;-77
2023/03/31 00:04:44;;;;;;;;;;;;;;;12.56;61.93;99227.88;1086521;54;19950;-77
2023/03/31 00:05:52;;;;;;;;;;;;;;;12.58;61.88;99229.38;1086476;54;19989;-77
2023/03/31 00:06:56;;;;;;;;;;;;;;;12.58;61.84;99221.31;1088460;46;20575;-77
2023/03/31 00:08:00;;;;;;;;;;;;;;;12.60;61.65;99219.31;1086387;54;19951;-78
2023/03/31 00:09:03;;;;;;;;;;;;;;;12.62;61.31;99211.94;1087072;54;19949;-78
2023/03/31 00:10:06;;;;;;;;;;;;;;;12.66;61.28;99206.22;1086232;54;19958;-81
2023/03/31 00:11:10;;;;;;;;;;;;;;;12.66;61.42;99200.84;1086200;54;19953;-80
2023/03/31 00:12:15;;;;;;;;;;;;;;;12.62;61.71;99205.72;1085718;54;20034;-80
2023/03/31 00:13:19;;;;;;;;;;;;;;;12.57;61.51;99203.56;1085261;47;20516;-79
2023/03/31 00:14:23;;;;;;;;;;;;;;;12.64;61.61;99199.19;1085042;54;19947;-80
2023/03/31 00:15:24;;;;;;;;;;;;;;;12.69;61.36;99192.44;1086470;39;20524;-81
2023/03/31 00:16:28;;;;;;;;;;;;;;;12.73;61.09;99193.75;1085396;54;19985;-80
2023/03/31 00:17:32;;;;;;;;;;;;;;;12.72;61.20;99192.09;1084864;54;19947;-82
2023/03/31 00:18:35;;;;;;;;;;;;;;;12.72;61.36;99189.41;1084568;54;19951;-81
2023/03/31 00:19:41;;;;;;;;;;;;;;;12.73;61.49;99185.72;1084363;54;19957;-80
2023/03/31 00:20:42;;;;;;;;;;;;;;;12.67;61.50;99191.78;1084455;54;20003;-80
2023/03/31 00:21:46;;;;;;;;;;;;;;;12.69;61.33;99195.97;1083962;54;19950;-78
2023/03/31 00:22:47;;;;;;;;;;;;;;;12.67;61.59;99175.69;1083573;54;19950;-77
2023/03/31 00:23:51;;;;;;;;;;;;;;;12.72;61.15;99179.50;1083842;54;20509;-79
2023/03/31 00:24:52;;;;;;;;;;;;;;;12.74;61.30;99176.66;1084281;54;19950;-78
2023/03/31 00:25:57;;;;;;;;;;;;;;;12.71;61.27;99174.31;1085762;54;19951;-79
2023/03/31 00:27:08;;;;;;;;;;;;;;;12.76;60.96;99177.28;1087624;46;19981;-79
2023/03/31 00:28:14;;;;;;;;;;;;;;;12.74;60.97;99176.66;1087556;54;19935;-78
2023/03/31 00:29:15;;;;;;;;;;;;;;;12.66;61.42;99182.91;1087411;54;19977;-80
2023/03/31 00:31:50;;;;;;;;;;;;;;;12.69;61.77;99171.84;1087566;54;19988;-80
2023/03/31 00:34:28;;;;;;;;;;;;;;;12.63;61.82;99168.03;1087412;54;19946;-78
2023/03/31 00:35:30;;;;;;;;;;;;;;;12.60;61.73;99160.31;1087170;54;19946;-79
2023/03/31 00:36:35;;;;;;;;;;;;;;;12.53;61.90;99156.69;1087017;54;20005;-80
2023/03/31 00:37:36;;;;;;;;;;;;;;;12.55;62.16;99154.69;1085886;39;20743;-79
2023/03/31 00:38:44;;;;;;;;;;;;;;;12.54;61.94;99150.34;1084103;54;19947;-79
2023/03/31 00:39:45;;;;;;;;;;;;;;;12.53;62.08;99159.38;1084167;54;20791;-79
2023/03/31 00:40:50;;;;;;;;;;;;;;;12.52;62.40;99147.00;1083866;54;20042;-79
2023/03/31 00:41:51;;;;;;;;;;;;;;;12.50;62.47;99149.00;1083951;54;19947;-80
2023/03/31 00:42:54;;;;;;;;;;;;;;;12.53;62.16;99147.81;1083893;54;19946;-79
2023/03/31 00:44:07;;;;;;;;;;;;;;;12.60;62.21;99146.91;1084279;54;19981;-79
2023/03/31 00:45:26;;;;;;;;;;;;;;;12.56;62.43;99139.41;1084401;54;19950;-78
2023/03/31 00:46:29;;;;;;;;;;;;;;;12.58;62.20;99150.81;1085880;31;20489;-78
2023/03/31 00:47:39;;;;;;;;;;;;;;;12.51;62.70;99139.13;1084487;54;19947;-79
2023/03/31 00:48:45;;;;;;;;;;;;;;;12.55;62.16;99145.78;1086106;54;19946;-80
2023/03/31 00:49:50;;;;;;;;;;;;;;;12.56;62.26;99134.91;1085968;54;19951;-80
2023/03/31 00:50:53;;;;;;;;;;;;;;;12.56;62.10;99128.69;1085057;46;19947;-79
2023/03/31 00:51:58;;;;;;;;;;;;;;;12.52;62.65;99136.25;1084021;54;19947;-80
2023/03/31 00:53:01;;;;;;;;;;;;;;;12.53;62.21;99124.53;1084349;54;20022;-78
2023/03/31 00:54:08;;;;;;;;;;;;;;;12.47;62.50;99123.41;1082815;54;19951;-79
2023/03/31 00:55:13;;;;;;;;;;;;;;;12.42;62.57;99125.78;1083812;54;19981;-78
2023/03/31 00:56:18;;;;;;;;;;;;;;;12.45;62.84;99129.97;1083795;54;20505;-79
2023/03/31 00:57:20;;;;;;;;;;;;;;;12.44;62.50;99118.38;1083903;54;19973;-79
2023/03/31 00:58:28;;;;;;;;;;;;;;;12.35;62.69;99118.66;1083939;54;19996;-79
2023/03/31 00:59:34;;;;;;;;;;;;;;;12.36;62.93;99120.31;1083772;54;19961;-79
2023/03/31 01:00:38;;;;;;;;;;;;;;;12.38;62.74;99113.75;1083883;54;19953;-79
2023/03/31 01:01:41;;;;;;;;;;;;;;;12.33;63.27;99122.34;1083490;54;20559;-79
2023/03/31 01:02:50;;;;;;;;;;;;;;;12.28;63.37;99123.88;1083861;54;19947;-79
2023/03/31 01:03:51;;;;;;;;;;;;;;;12.29;63.23;99118.34;1083978;54;19962;-78
2023/03/31 01:04:58;;;;;;;;;;;;;;;12.31;63.09;99112.81;1083953;54;20002;-79
2023/03/31 01:06:01;;;;;;;;;;;;;;;12.26;63.44;99115.19;1083807;54;20354;-80
2023/03/31 01:07:08;;;;;;;;;;;;;;;12.26;63.45;99110.66;1083745;54;19951;-80
2023/03/31 01:08:10;;;;;;;;;;;;;;;12.27;63.32;99117.69;1083674;54;19958;-80
2023/03/31 01:09:15;;;;;;;;;;;;;;;12.22;63.51;99119.25;1083661;54;19951;-78
2023/03/31 01:10:17;;;;;;;;;;;;;;;12.21;63.55;99110.34;1083141;54;19951;-79
2023/03/31 01:11:22;;;;;;;;;;;;;;;12.22;63.49;99109.34;1083735;54;19947;-81
2023/03/31 01:12:24;;;;;;;;;;;;;;;12.25;63.25;99105.47;1083348;54;19950;-79
2023/03/31 01:13:28;;;;;;;;;;;;;;;12.30;63.22;99101.25;1083827;54;19953;-79
2023/03/31 01:14:33;;;;;;;;;;;;;;;12.19;63.39;99104.34;1083449;54;19962;-79
2023/03/31 01:15:36;;;;;;;;;;;;;;;12.21;63.25;99096.13;1083691;54;20081;-79
2023/03/31 01:16:38;;;;;;;;;;;;;;;12.24;63.12;99107.31;1083658;54;19956;-79
2023/03/31 01:17:43;;;;;;;;;;;;;;;12.20;63.67;99100.66;1083832;54;19947;-78
2023/03/31 01:18:45;;;;;;;;;;;;;;;12.15;63.79;99098.50;1083444;54;19947;-78
2023/03/31 01:20:00;;;;;;;;;;;;;;;12.14;63.59;99096.84;1083825;54;19946;-78
2023/03/31 01:21:17;;;;;;;;;;;;;;;12.12;63.75;99088.16;1083645;54;20425;-79
2023/03/31 01:22:36;;;;;;;;;;;;;;;12.13;63.84;99086.31;1083819;54;19947;-80
2023/03/31 01:23:58;;;;;;;;;;;;;;;12.08;64.17;99091.38;1084385;39;20168;-80
2023/03/31 01:25:12;;;;;;;;;;;;;;;12.06;64.11;99093.38;1083819;54;19951;-79
2023/03/31 01:26:30;;;;;;;;;;;;;;;12.08;64.25;99092.19;1083936;39;20409;-79
2023/03/31 01:27:49;;;;;;;;;;;;;;;12.09;63.77;99091.19;1083371;54;19950;-79
2023/03/31 01:28:52;;;;;;;;;;;;;;;12.01;64.24;99086.72;1083430;54;20038;-79
2023/03/31 01:30:17;;;;;;;;;;;;;;;12.02;64.50;99093.72;1083319;54;19950;-80
2023/03/31 01:31:38;;;;;;;;;;;;;;;12.04;64.38;99095.41;1083189;54;19973;-80
2023/03/31 01:32:56;;;;;;;;;;;;;;;12.04;64.48;99090.06;1083427;54;19950;-79
2023/03/31 01:34:17;;;;;;;;;;;;;;;12.06;64.13;99088.03;1083468;54;19958;-80
2023/03/31 01:35:45;;;;;;;;;;;;;;;12.00;64.60;99078.84;1083315;54;19958;-80
2023/03/31 01:37:14;;;;;;;;;;;;;;;12.00;64.55;99089.56;1082476;54;19973;-79
2023/03/31 01:38:41;;;;;;;;;;;;;;;12.01;64.68;99081.34;1082546;54;19957;-79
2023/03/31 01:40:13;;;;;;;;;;;;;;;12.07;64.01;99084.34;1083496;39;20719;-79
2023/03/31 01:41:27;;;;;;;;;;;;;;;12.04;64.40;99090.06;1083381;54;19989;-79
2023/03/31 01:42:33;;;;;;;;;;;;;;;11.93;64.43;99084.06;1083514;54;19951;-79
2023/03/31 01:43:42;;;;;;;;;;;;;;;11.92;64.27;99087.75;1083291;54;19997;-79
2023/03/31 01:44:45;;;;;;;;;;;;;;;11.95;64.39;99081.22;1083240;54;19946;-79
2023/03/31 01:45:55;;;;;;;;;;;;;;;11.99;64.22;99083.41;1083177;54;20452;-79
2023/03/31 01:46:57;;;;;;;;;;;;;;;12.09;64.05;99076.97;1084688;39;20348;-79
2023/03/31 01:48:05;;;;;;;;;;;;;;;12.11;64.10;99080.28;1083402;54;19950;-79
2023/03/31 01:49:13;;;;;;;;;;;;;;;12.05;64.07;99076.47;1083258;54;19947;-79
2023/03/31 01:50:22;;;;;;;;;;;;;;;11.99;64.24;99083.41;1083867;54;19946;-79
2023/03/31 01:51:30;;;;;;;;;;;;;;;11.94;64.40;99080.38;1083474;54;19950;-79
2023/03/31 01:52:38;;;;;;;;;;;;;;;11.92;64.31;99073.53;1083341;54;19946;-79
2023/03/31 01:53:43;;;;;;;;;;;;;;;11.90;64.42;99075.53;1083521;54;19973;-78
2023/03/31 01:54:51;;;;;;;;;;;;;;;11.99;64.34;99067.31;1083103;39;20377;-80
2023/03/31 01:55:58;;;;;;;;;;;;;;;12.03;64.11;99059.75;1083562;54;20846;-79
2023/03/31 01:57:07;;;;;;;;;;;;;;;12.05;63.92;99059.56;1083580;54;19951;-80
2023/03/31 01:58:12;;;;;;;;;;;;;;;12.06;63.91;99066.59;1083720;39;20464;-78
2023/03/31 01:59:19;;;;;;;;;;;;;;;12.11;63.50;99054.34;1083204;54;20034;-79
2023/03/31 02:00:22;;;;;;;;;;;;;;;12.12;63.50;99052.47;1084537;39;20716;-80
2023/03/31 02:01:29;;;;;;;;;;;;;;;12.11;63.37;99054.34;1083314;54;20575;-80
2023/03/31 02:02:35;;;;;;;;;;;;;;;12.05;63.71;99048.84;1083256;54;19947;-79
2023/03/31 02:03:42;;;;;;;;;;;;;;;12.10;63.52;99051.81;1083276;54;19947;-79
2023/03/31 02:04:49;;;;;;;;;;;;;;;12.08;63.50;99052.00;1083252;54;19946;-80
2023/03/31 02:05:55;;;;;;;;;;;;;;;12.06;63.54;99045.19;1083964;39;20365;-80
2023/03/31 02:06:59;;;;;;;;;;;;;;;12.02;63.55;99045.53;1085282;54;19947;-80
2023/03/31 02:08:05;;;;;;;;;;;;;;;12.09;63.73;99044.81;1086905;31;20532;-81
2023/03/31 02:09:09;;;;;;;;;;;;;;;12.03;63.64;99046.38;1085191;54;19946;-81
2023/03/31 02:10:14;;;;;;;;;;;;;;;12.04;63.69;99052.53;1085314;54;19946;-81
2023/03/31 02:11:16;;;;;;;;;;;;;;;12.14;63.66;99047.78;1084840;54;19951;-81
2023/03/31 02:12:23;;;;;;;;;;;;;;;12.17;63.46;99055.47;1085279;54;20038;-81
2023/03/31 02:13:26;;;;;;;;;;;;;;;12.14;63.33;99050.47;1085221;54;20014;-81
2023/03/31 02:14:32;;;;;;;;;;;;;;;12.19;63.51;99050.75;1085161;54;20465;-80
2023/03/31 02:15:35;;;;;;;;;;;;;;;12.12;63.63;99050.66;1085183;54;20611;-81
2023/03/31 02:16:40;;;;;;;;;;;;;;;12.07;63.92;99054.88;1085686;54;19939;-79
2023/03/31 02:17:44;;;;;;;;;;;;;;;11.97;64.48;99057.75;1085133;54;19938;-81
2023/03/31 02:18:49;;;;;;;;;;;;;;;11.95;64.57;99049.91;1085185;54;19981;-81
2023/03/31 02:19:52;;;;;;;;;;;;;;;12.00;64.32;99052.91;1085337;54;19962;-81
2023/03/31 02:20:58;;;;;;;;;;;;;;;11.97;64.77;99047.03;1084801;54;19946;-82
2023/03/31 02:22:02;;;;;;;;;;;;;;;11.97;64.56;99053.28;1085054;54;19951;-80
2023/03/31 02:23:07;;;;;;;;;;;;;;;12.00;64.72;99058.25;1084895;54;19950;-81
2023/03/31 02:24:10;;;;;;;;;;;;;;;11.99;64.91;99048.56;1085224;47;19950;-82
2023/03/31 02:25:18;;;;;;;;;;;;;;;11.95;65.05;99043.72;1085049;54;19939;-80
2023/03/31 02:26:22;;;;;;;;;;;;;;;11.91;64.81;99037.03;1085011;54;19997;-81
2023/03/31 02:27:30;;;;;;;;;;;;;;;11.97;64.93;99042.56;1084703;54;19953;-80
2023/03/31 02:28:34;;;;;;;;;;;;;;;11.92;65.15;99036.84;1085244;54;19950;-81
2023/03/31 02:29:35;;;;;;;;;;;;;;;11.98;64.99;99028.16;1085053;54;20521;-81
2023/03/31 02:30:45;;;;;;;;;;;;;;;11.96;65.24;99034.66;1085471;39;20341;-80
2023/03/31 02:31:51;;;;;;;;;;;;;;;12.02;64.83;99026.78;1084942;47;20030;-81
2023/03/31 02:32:55;;;;;;;;;;;;;;;12.07;65.16;99020.06;1084590;54;20481;-80
2023/03/31 02:33:56;;;;;;;;;;;;;;;12.02;65.63;99023.28;1084589;54;19951;-80
2023/03/31 02:35:00;;;;;;;;;;;;;;;12.00;65.38;99023.44;1083951;54;20485;-78
2023/03/31 02:36:02;;;;;;;;;;;;;;;12.00;65.51;99025.28;1084114;54;19973;-80
2023/03/31 02:37:07;;;;;;;;;;;;;;;12.02;65.14;99016.06;1083754;54;19950;-80
2023/03/31 02:38:08;;;;;;;;;;;;;;;12.01;65.38;99014.38;1083300;54;19951;-79
2023/03/31 02:39:14;;;;;;;;;;;;;;;12.07;65.63;99014.69;1083163;54;19947;-79
2023/03/31 02:40:16;;;;;;;;;;;;;;;12.08;65.62;99011.00;1083114;54;19947;-80
2023/03/31 02:41:20;;;;;;;;;;;;;;;12.06;65.59;99016.53;1083427;54;19946;-79
2023/03/31 02:42:21;;;;;;;;;;;;;;;12.03;65.75;99008.88;1083102;54;19959;-79
2023/03/31 02:43:28;;;;;;;;;;;;;;;11.95;65.55;99006.22;1083074;54;19981;-80
2023/03/31 02:44:29;;;;;;;;;;;;;;;11.98;65.42;99008.56;1083618;54;20031;-79
2023/03/31 02:45:40;;;;;;;;;;;;;;;12.00;65.58;99010.03;1083338;54;20571;-79
2023/03/31 02:46:44;;;;;;;;;;;;;;;11.96;65.49;99003.34;1083889;54;19950;-80
2023/03/31 02:47:45;;;;;;;;;;;;;;;11.99;65.40;98999.50;1084225;46;19957;-81
2023/03/31 02:48:53;;;;;;;;;;;;;;;12.01;65.44;99001.00;1083772;54;19981;-78
2023/03/31 02:49:56;;;;;;;;;;;;;;;11.99;65.66;98995.00;1084292;54;19946;-80
2023/03/31 02:51:15;;;;;;;;;;;;;;;12.04;65.15;98996.28;1084246;54;19946;-79
2023/03/31 02:52:35;;;;;;;;;;;;;;;11.99;65.42;98992.31;1084159;54;19946;-80
2023/03/31 02:53:41;;;;;;;;;;;;;;;11.90;65.72;98984.50;1084584;54;19946;-79
2023/03/31 02:54:50;;;;;;;;;;;;;;;11.93;65.53;98984.16;1084232;54;19950;-80
2023/03/31 02:55:59;;;;;;;;;;;;;;;11.97;65.57;98983.63;1084408;54;19951;-79
2023/03/31 02:57:14;;;;;;;;;;;;;;;11.92;65.81;98985.97;1084053;54;19969;-79
2023/03/31 02:58:30;;;;;;;;;;;;;;;11.92;65.96;98977.94;1083718;54;19947;-79
2023/03/31 02:59:43;;;;;;;;;;;;;;;11.96;65.77;98973.91;1082645;54;19947;-79
2023/03/31 03:00:52;;;;;;;;;;;;;;;11.96;65.96;98967.69;1084337;31;20524;-79
2023/03/31 03:02:03;;;;;;;;;;;;;;;11.94;65.73;98967.06;1083519;54;19977;-79
2023/03/31 03:03:14;;;;;;;;;;;;;;;11.99;65.60;98949.47;1084400;54;19947;-78
2023/03/31 03:04:26;;;;;;;;;;;;;;;11.95;65.69;98936.59;1084460;54;19973;-79
2023/03/31 03:05:37;;;;;;;;;;;;;;;12.01;65.73;98942.06;1087543;54;19982;-80
2023/03/31 03:06:56;;;;;;;;;;;;;;;12.06;65.28;98933.50;1088428;46;19939;-79
2023/03/31 03:08:02;;;;;;;;;;;;;;;12.11;65.41;98936.47;1087329;54;19966;-79
2023/03/31 03:09:10;;;;;;;;;;;;;;;12.14;65.25;98925.38;1086385;46;19947;-79
2023/03/31 03:10:16;;;;;;;;;;;;;;;12.16;65.33;98922.53;1086670;46;19953;-78
2023/03/31 03:11:22;;;;;;;;;;;;;;;12.21;65.11;98920.13;1087724;54;19943;-80
2023/03/31 03:12:27;;;;;;;;;;;;;;;12.23;64.83;98907.38;1087948;54;19953;-79
2023/03/31 03:13:31;;;;;;;;;;;;;;;12.25;64.80;98894.63;1087757;54;19951;-79
2023/03/31 03:14:44;;;;;;;;;;;;;;;12.28;64.38;98883.53;1088061;54;19965;-80
2023/03/31 03:15:47;;;;;;;;;;;;;;;12.30;64.49;98888.72;1087589;54;19992;-80
2023/03/31 03:16:55;;;;;;;;;;;;;;;12.31;64.46;98888.53;1088484;46;20280;-80
2023/03/31 03:17:56;;;;;;;;;;;;;;;12.33;64.20;98894.53;1087569;54;19935;-80
2023/03/31 03:19:07;;;;;;;;;;;;;;;12.36;64.36;98873.75;1087363;54;19950;-79
2023/03/31 03:20:10;;;;;;;;;;;;;;;12.35;64.34;98875.59;1087529;54;19947;-79
2023/03/31 03:21:14;;;;;;;;;;;;;;;12.37;64.36;98870.88;1087508;54;19994;-81
2023/03/31 03:22:15;;;;;;;;;;;;;;;12.38;64.28;98860.97;1087386;54;19950;-80
2023/03/31 03:23:19;;;;;;;;;;;;;;;12.36;64.13;98865.72;1086938;54;19947;-80
2023/03/31 03:24:21;;;;;;;;;;;;;;;12.33;63.82;98862.38;1086746;54;19974;-80
2023/03/31 03:25:25;;;;;;;;;;;;;;;12.34;64.30;98855.16;1085783;39;20361;-80
2023/03/31 03:26:27;;;;;;;;;;;;;;;12.37;63.90;98857.47;1084534;54;19939;-80
2023/03/31 03:27:31;;;;;;;;;;;;;;;12.33;64.07;98851.66;1084452;54;19951;-79
2023/03/31 03:28:32;;;;;;;;;;;;;;;12.33;63.61;98848.13;1083941;54;20001;-79
2023/03/31 03:29:36;;;;;;;;;;;;;;;12.29;63.99;98852.22;1084337;54;19962;-80
2023/03/31 03:30:40;;;;;;;;;;;;;;;12.32;63.67;98844.66;1084183;54;19947;-79
2023/03/31 03:31:43;;;;;;;;;;;;;;;12.30;63.31;98844.00;1084693;39;19997;-80
2023/03/31 03:32:45;;;;;;;;;;;;;;;12.30;63.69;98844.00;1084125;54;20450;-80
2023/03/31 03:33:48;;;;;;;;;;;;;;;12.32;63.29;98841.16;1084120;54;19951;-79
2023/03/31 03:34:49;;;;;;;;;;;;;;;12.30;63.42;98840.50;1084470;54;19954;-80
2023/03/31 03:35:53;;;;;;;;;;;;;;;12.30;63.08;98844.00;1084322;54;19980;-79
2023/03/31 03:36:57;;;;;;;;;;;;;;;12.26;63.09;98826.63;1086861;39;20357;-80
2023/03/31 03:37:58;;;;;;;;;;;;;;;12.21;63.46;98829.03;1084561;54;20056;-80
2023/03/31 03:39:02;;;;;;;;;;;;;;;12.27;63.26;98830.13;1084698;39;20463;-79
2023/03/31 03:40:04;;;;;;;;;;;;;;;12.25;63.33;98830.34;1084197;54;20413;-80
2023/03/31 03:41:09;;;;;;;;;;;;;;;12.27;63.04;98835.50;1085021;39;20341;-80
2023/03/31 03:42:10;;;;;;;;;;;;;;;12.22;63.51;98835.22;1084339;54;19958;-80
2023/03/31 03:43:13;;;;;;;;;;;;;;;12.28;63.12;98829.94;1084278;54;19946;-78
2023/03/31 03:44:14;;;;;;;;;;;;;;;12.31;63.00;98837.63;1084780;54;19968;-79
2023/03/31 03:45:21;;;;;;;;;;;;;;;12.32;63.03;98831.25;1084301;54;19946;-80
2023/03/31 03:46:25;;;;;;;;;;;;;;;12.35;62.77;98830.03;1084852;39;20229;-80
2023/03/31 03:47:29;;;;;;;;;;;;;;;12.39;62.86;98823.28;1084369;54;19989;-79
2023/03/31 03:48:30;;;;;;;;;;;;;;;12.43;62.83;98821.06;1084655;54;19950;-80
2023/03/31 03:49:34;;;;;;;;;;;;;;;12.39;63.12;98815.25;1084445;54;19947;-79
2023/03/31 03:50:35;;;;;;;;;;;;;;;12.32;63.08;98817.03;1084680;54;20033;-79
2023/03/31 03:51:39;;;;;;;;;;;;;;;12.36;62.92;98812.94;1084692;54;19953;-79
2023/03/31 03:52:40;;;;;;;;;;;;;;;12.35;62.57;98803.22;1084633;46;19950;-79
2023/03/31 03:53:44;;;;;;;;;;;;;;;12.41;62.42;98801.66;1085471;54;19950;-76
2023/03/31 03:54:45;;;;;;;;;;;;;;;12.40;62.27;98791.94;1086213;54;20708;-77
2023/03/31 03:55:50;;;;;;;;;;;;;;;12.43;62.67;98791.59;1087330;39;20827;-77
2023/03/31 03:56:51;;;;;;;;;;;;;;;12.47;62.20;98784.81;1086467;54;19943;-79
2023/03/31 03:57:55;;;;;;;;;;;;;;;12.50;62.32;98784.44;1087231;46;19947;-77
2023/03/31 03:58:57;;;;;;;;;;;;;;;12.53;61.93;98773.38;1086979;54;19958;-77
2023/03/31 04:00:00;;;;;;;;;;;;;;;12.46;62.03;98770.59;1087806;54;20294;-76
2023/03/31 04:01:07;;;;;;;;;;;;;;;12.52;61.76;98758.31;1088479;46;19939;-77
2023/03/31 04:02:14;;;;;;;;;;;;;;;12.55;61.78;98752.56;1087733;54;19950;-77
2023/03/31 04:03:15;;;;;;;;;;;;;;;12.52;61.68;98755.63;1087810;54;20020;-78
2023/03/31 04:04:19;;;;;;;;;;;;;;;12.51;61.46;98748.59;1088715;39;20287;-77
2023/03/31 04:05:27;;;;;;;;;;;;;;;12.54;61.91;98739.34;1087379;54;19943;-77
2023/03/31 04:06:31;;;;;;;;;;;;;;;12.53;61.79;98741.19;1087583;54;19950;-77
2023/03/31 04:07:32;;;;;;;;;;;;;;;12.53;61.65;98746.56;1087679;46;20290;-77
2023/03/31 04:08:36;;;;;;;;;;;;;;;12.55;61.80;98732.97;1087407;54;19999;-76
2023/03/31 04:09:37;;;;;;;;;;;;;;;12.45;61.64;98725.22;1086879;54;19949;-77
2023/03/31 04:10:45;;;;;;;;;;;;;;;12.41;61.52;98730.16;1086071;54;19954;-77
2023/03/31 04:11:46;;;;;;;;;;;;;;;12.46;61.83;98724.22;1084935;54;19950;-77
2023/03/31 04:12:49;;;;;;;;;;;;;;;12.50;61.21;98724.66;1085558;54;20642;-78
2023/03/31 04:13:51;;;;;;;;;;;;;;;12.46;61.76;98737.63;1085340;54;19962;-79
2023/03/31 04:14:54;;;;;;;;;;;;;;;12.53;61.73;98735.00;1085655;54;19958;-79
2023/03/31 04:15:55;;;;;;;;;;;;;;;12.51;61.64;98737.88;1085263;54;19950;-77
2023/03/31 04:16:59;;;;;;;;;;;;;;;12.54;61.80;98734.81;1085499;54;19981;-77
2023/03/31 04:18:03;;;;;;;;;;;;;;;12.56;61.44;98723.91;1085316;54;19998;-77
2023/03/31 04:19:07;;;;;;;;;;;;;;;12.52;61.63;98722.59;1085524;54;20015;-78
2023/03/31 04:20:10;;;;;;;;;;;;;;;12.55;61.44;98720.41;1085459;54;19950;-77
2023/03/31 04:21:21;;;;;;;;;;;;;;;12.53;61.48;98727.78;1085252;54;19981;-77
2023/03/31 04:22:27;;;;;;;;;;;;;;;12.46;61.40;98735.75;1084891;54;19951;-79
2023/03/31 04:23:31;;;;;;;;;;;;;;;12.42;61.50;98739.81;1085411;54;19958;-78
2023/03/31 04:24:37;;;;;;;;;;;;;;;12.40;61.89;98735.69;1085315;54;19950;-77
2023/03/31 04:25:45;;;;;;;;;;;;;;;12.47;61.55;98737.41;1085883;54;19950;-77
2023/03/31 04:26:49;;;;;;;;;;;;;;;12.42;61.93;98739.00;1085769;54;19951;-78
2023/03/31 04:27:53;;;;;;;;;;;;;;;12.48;61.79;98738.25;1085660;54;19950;-78
2023/03/31 04:28:59;;;;;;;;;;;;;;;12.48;61.72;98746.28;1085646;54;19951;-77
2023/03/31 04:30:07;;;;;;;;;;;;;;;12.38;61.89;98743.06;1085863;54;19951;-79
2023/03/31 04:31:14;;;;;;;;;;;;;;;12.45;61.85;98738.63;1085776;54;19942;-77
2023/03/31 04:32:20;;;;;;;;;;;;;;;12.39;61.95;98732.19;1085634;54;19973;-77
2023/03/31 04:33:24;;;;;;;;;;;;;;;12.41;61.80;98742.69;1085324;54;19970;-77
2023/03/31 04:34:33;;;;;;;;;;;;;;;12.46;61.58;98732.25;1085212;54;19950;-77
2023/03/31 04:35:48;;;;;;;;;;;;;;;12.44;61.76;98720.91;1085867;54;19974;-76
2023/03/31 04:36:54;;;;;;;;;;;;;;;12.40;61.67;98707.03;1086137;39;20086;-77
2023/03/31 04:37:57;;;;;;;;;;;;;;;12.47;61.81;98696.38;1085875;46;20832;-78
2023/03/31 04:39:02;;;;;;;;;;;;;;;12.51;61.70;98694.97;1085238;54;20026;-77
2023/03/31 04:40:08;;;;;;;;;;;;;;;12.52;61.25;98696.66;1086151;54;19954;-77
2023/03/31 04:41:12;;;;;;;;;;;;;;;12.50;61.45;98696.00;1085551;54;20011;-76
2023/03/31 04:42:13;;;;;;;;;;;;;;;12.51;61.66;98707.56;1089162;39;20244;-77
2023/03/31 04:43:17;;;;;;;;;;;;;;;12.39;61.90;98713.41;1086282;46;19950;-77
2023/03/31 04:44:18;;;;;;;;;;;;;;;12.40;62.13;98709.72;1086278;54;19950;-78
2023/03/31 04:45:22;;;;;;;;;;;;;;;12.42;61.98;98718.38;1085820;54;19954;-77
2023/03/31 04:46:24;;;;;;;;;;;;;;;12.36;61.68;98712.97;1085906;54;19950;-76
2023/03/31 04:47:27;;;;;;;;;;;;;;;12.34;62.06;98713.13;1086075;54;19953;-76
2023/03/31 04:48:35;;;;;;;;;;;;;;;12.43;61.63;98705.81;1086093;54;19950;-77
2023/03/31 04:49:39;;;;;;;;;;;;;;;12.43;61.66;98708.50;1086911;54;20848;-76
2023/03/31 04:50:41;;;;;;;;;;;;;;;12.38;61.76;98708.22;1086169;54;19943;-77
2023/03/31 04:51:45;;;;;;;;;;;;;;;12.43;61.83;98703.16;1086659;54;19942;-77
2023/03/31 04:52:46;;;;;;;;;;;;;;;12.45;61.58;98703.78;1086669;54;19943;-77
2023/03/31 04:53:49;;;;;;;;;;;;;;;12.45;61.72;98699.25;1086715;54;19943;-76
2023/03/31 04:54:51;;;;;;;;;;;;;;;12.45;61.66;98691.22;1086114;54;19951;-79
2023/03/31 04:55:55;;;;;;;;;;;;;;;12.43;62.15;98687.06;1085512;54;19985;-77
2023/03/31 04:56:56;;;;;;;;;;;;;;;12.41;62.17;98683.75;1087202;46;19966;-76
2023/03/31 04:58:00;;;;;;;;;;;;;;;12.41;62.01;98689.94;1086092;54;19942;-78
2023/03/31 04:59:02;;;;;;;;;;;;;;;12.42;62.21;98686.22;1085295;54;19947;-78
2023/03/31 05:00:07;;;;;;;;;;;;;;;12.46;61.91;98682.16;1085362;54;19947;-78
2023/03/31 05:01:09;;;;;;;;;;;;;;;12.43;62.10;98676.34;1085557;54;19962;-77
2023/03/31 05:02:12;;;;;;;;;;;;;;;12.43;62.38;98673.66;1085448;54;19951;-77
2023/03/31 05:03:13;;;;;;;;;;;;;;;12.47;62.19;98673.09;1085891;54;19951;-77
2023/03/31 05:04:20;;;;;;;;;;;;;;;12.46;62.22;98676.78;1085851;54;19954;-78
2023/03/31 05:05:21;;;;;;;;;;;;;;;12.44;62.38;98678.81;1086580;54;19964;-78
2023/03/31 05:06:25;;;;;;;;;;;;;;;12.47;62.09;98677.59;1086583;54;19950;-77
2023/03/31 05:07:26;;;;;;;;;;;;;;;12.47;62.27;98685.66;1086640;39;20421;-79
2023/03/31 05:08:30;;;;;;;;;;;;;;;12.45;62.54;98685.03;1086380;54;19954;-78
2023/03/31 05:09:34;;;;;;;;;;;;;;;12.29;62.81;98684.22;1085873;54;19946;-77
2023/03/31 05:10:35;;;;;;;;;;;;;;;12.37;62.85;98696.69;1086018;54;19943;-78
2023/03/31 05:11:39;;;;;;;;;;;;;;;12.33;63.18;98687.34;1086146;54;19947;-78
2023/03/31 05:12:40;;;;;;;;;;;;;;;12.24;63.40;98692.03;1085817;54;19949;-78
2023/03/31 05:13:46;;;;;;;;;;;;;;;12.32;63.38;98696.44;1086595;54;19949;-77
2023/03/31 05:14:50;;;;;;;;;;;;;;;12.30;63.54;98691.25;1086398;54;19966;-76
2023/03/31 05:15:51;;;;;;;;;;;;;;;12.27;64.03;98694.34;1085611;54;19970;-78
2023/03/31 05:16:57;;;;;;;;;;;;;;;12.27;64.09;98685.44;1087563;31;20464;-78
2023/03/31 05:17:59;;;;;;;;;;;;;;;12.29;64.34;98688.78;1086656;54;20757;-77
2023/03/31 05:19:03;;;;;;;;;;;;;;;12.31;64.42;98684.88;1087105;54;19965;-76
2023/03/31 05:20:08;;;;;;;;;;;;;;;12.25;64.28;98685.66;1087172;46;19938;-77
2023/03/31 05:21:12;;;;;;;;;;;;;;;12.31;64.19;98668.81;1086729;54;19973;-78
2023/03/31 05:22:19;;;;;;;;;;;;;;;12.36;63.79;98678.94;1086620;54;19957;-78
2023/03/31 05:23:22;;;;;;;;;;;;;;;12.35;64.32;98673.78;1086087;54;19965;-79
2023/03/31 05:24:24;;;;;;;;;;;;;;;12.16;65.11;98673.38;1085915;46;19973;-77
2023/03/31 05:25:31;;;;;;;;;;;;;;;12.23;65.14;98671.59;1085677;54;19957;-77
2023/03/31 05:26:33;;;;;;;;;;;;;;;12.17;65.12;98678.53;1086006;54;19947;-78
2023/03/31 05:27:37;;;;;;;;;;;;;;;12.19;65.60;98682.88;1086308;54;19950;-78
2023/03/31 05:28:38;;;;;;;;;;;;;;;12.17;65.66;98677.72;1086433;54;20459;-78
2023/03/31 05:29:42;;;;;;;;;;;;;;;12.19;66.02;98691.75;1086262;54;19942;-77
2023/03/31 05:30:46;;;;;;;;;;;;;;;12.16;66.11;98692.13;1086125;54;19950;-77
2023/03/31 05:31:47;;;;;;;;;;;;;;;12.14;66.52;98683.44;1086197;54;19954;-79
2023/03/31 05:32:51;;;;;;;;;;;;;;;12.10;67.03;98687.50;1086403;46;20018;-77
2023/03/31 05:33:52;;;;;;;;;;;;;;;12.01;67.26;98687.63;1086499;54;19942;-77
2023/03/31 05:34:57;;;;;;;;;;;;;;;12.05;67.25;98685.41;1086466;54;19962;-78
2023/03/31 05:36:01;;;;;;;;;;;;;;;11.91;67.89;98699.63;1087103;46;19954;-78
2023/03/31 05:37:05;;;;;;;;;;;;;;;11.92;68.15;98693.25;1087411;46;19970;-77
2023/03/31 05:38:16;;;;;;;;;;;;;;;11.91;68.92;98689.72;1087010;54;20006;-77
2023/03/31 05:39:20;;;;;;;;;;;;;;;11.89;68.78;98701.66;1086856;54;20002;-78
2023/03/31 05:40:21;;;;;;;;;;;;;;;11.91;68.81;98694.25;1086782;54;19950;-77
2023/03/31 05:42:40;;;;;;;;;;;;;;;11.82;70.11;98704.22;1087385;39;20211;-78
2023/03/31 05:43:42;;;;;;;;;;;;;;;11.62;71.55;98712.00;1086841;54;19951;-78
2023/03/31 05:44:46;;;;;;;;;;;;;;;11.52;72.23;98701.56;1086894;54;19998;-77
2023/03/31 05:45:47;;;;;;;;;;;;;;;11.58;71.81;98700.84;1086846;54;19943;-77